Time;durP1;ratioP1;P1;durP2;ratioP2;P2;SDS_P1;SDS_P2;PMS_P1;PMS_P2;Temp;Humidity;BMP_temperature;BMP_pressure;BME280_temperature;BME280_humidity;BME280_pressure;Samples;Min_cycle;Max_cycle;Signal;HPM_P1;HPM_P2
2023/01/24 00:02:14;;;;;;;23.45;15.40;;;1.80;90.60;;;;;;5025597;28;20242;-82
2023/01/24 00:04:41;;;;;;;21.30;13.05;;;1.60;58.40;;;;;;5023019;28;20662;-82
2023/01/24 00:07:09;;;;;;;27.83;13.13;;;1.70;1.00;;;;;;5024120;28;20210;-82
2023/01/24 00:09:36;;;;;;;19.00;13.05;;;1.50;58.90;;;;;;5023538;28;20204;-80
2023/01/24 00:12:03;;;;;;;23.13;12.93;;;1.70;99.90;;;;;;5028385;28;20263;-81
2023/01/24 00:14:30;;;;;;;25.50;13.57;;;1.90;99.90;;;;;;5023970;28;20280;-83
2023/01/24 00:16:57;;;;;;;28.58;14.70;;;0.10;1.00;;;;;;5024692;28;20208;-82
2023/01/24 00:19:24;;;;;;;24.65;13.98;;;;;;;;;;5022742;28;20232;-81
2023/01/24 00:21:51;;;;;;;22.08;13.43;;;2.00;1.00;;;;;;5023239;28;20238;-82
2023/01/24 00:24:19;;;;;;;26.08;13.68;;;1.40;2.20;;;;;;5022331;28;20212;-83
2023/01/24 00:26:46;;;;;;;26.40;13.93;;;1.70;99.90;;;;;;5021837;28;20212;-81
2023/01/24 00:29:12;;;;;;;29.42;14.68;;;1.70;99.90;;;;;;5023909;28;20235;-81
2023/01/24 00:31:39;;;;;;;26.67;13.70;;;2.00;99.90;;;;;;5023611;28;20228;-83
2023/01/24 00:34:06;;;;;;;32.15;15.88;;;;;;;;;;5021969;28;20205;-83
2023/01/24 00:36:33;;;;;;;20.98;12.15;;;1.90;99.90;;;;;;5024859;28;20284;-82
2023/01/24 00:39:00;;;;;;;24.48;15.10;;;;;;;;;;5022809;28;20225;-81
2023/01/24 00:41:29;;;;;;;26.63;15.90;;;1.30;94.20;;;;;;5019417;28;20236;-83
2023/01/24 00:43:56;;;;;;;21.40;13.90;;;1.90;1.00;;;;;;5039128;28;20228;-82
2023/01/24 00:46:22;;;;;;;26.42;14.52;;;1.40;8.00;;;;;;5034298;28;20644;-82
2023/01/24 00:48:49;;;;;;;31.27;14.45;;;1.50;99.90;;;;;;5018413;28;20204;-82
2023/01/24 00:51:16;;;;;;;28.63;14.25;;;1.10;89.40;;;;;;5019060;28;20578;-80
2023/01/24 00:53:43;;;;;;;25.83;14.60;;;1.60;99.90;;;;;;5021048;28;20239;-82
2023/01/24 00:56:10;;;;;;;29.58;14.32;;;1.50;1.00;;;;;;5022713;28;20204;-80
2023/01/24 00:58:38;;;;;;;24.52;13.23;;;1.60;99.90;;;;;;5022118;28;20226;-82
2023/01/24 01:01:05;;;;;;;18.52;11.80;;;1.70;12.20;;;;;;5021939;28;20562;-81
2023/01/24 01:03:32;;;;;;;27.35;12.05;;;1.10;1.00;;;;;;5022882;28;20226;-82
2023/01/24 01:06:00;;;;;;;15.45;10.07;;;1.60;1.00;;;;;;5023100;28;20299;-82
2023/01/24 01:08:27;;;;;;;19.85;11.32;;;0.90;1.00;;;;;;5022330;28;20255;-82
2023/01/24 01:10:54;;;;;;;20.05;11.80;;;1.40;1.00;;;;;;5021438;28;20205;-83
2023/01/24 01:13:21;;;;;;;21.50;13.43;;;1.00;1.00;;;;;;5021735;28;20221;-82
2023/01/24 01:15:49;;;;;;;18.83;11.43;;;1.30;1.00;;;;;;5030434;28;20201;-80
2023/01/24 01:18:16;;;;;;;20.30;11.30;;;1.10;1.00;;;;;;5025721;28;20269;-80
2023/01/24 01:20:43;;;;;;;18.27;9.30;;;;;;;;;;5025800;28;20240;-82
2023/01/24 01:23:10;;;;;;;17.85;10.13;;;0.90;1.00;;;;;;5031243;28;20288;-83
2023/01/24 01:25:39;;;;;;;21.10;11.25;;;1.20;1.00;;;;;;5033584;28;20227;-83
2023/01/24 01:28:07;;;;;;;14.85;11.20;;;;;;;;;;5029264;28;20200;-82
2023/01/24 01:30:33;;;;;;;16.50;9.75;;;1.00;1.00;;;;;;5034883;28;20232;-82
2023/01/24 01:33:01;;;;;;;15.07;9.88;;;0.80;1.00;;;;;;5037229;28;20244;-81
2023/01/24 01:35:28;;;;;;;16.33;11.00;;;1.40;1.00;;;;;;5037176;28;20232;-82
2023/01/24 01:37:55;;;;;;;20.30;11.18;;;0.90;1.00;;;;;;5036389;28;20205;-80
2023/01/24 01:40:22;;;;;;;15.75;10.70;;;;;;;;;;5037771;28;20326;-83
2023/01/24 01:42:51;;;;;;;15.38;9.80;;;1.30;1.00;;;;;;5037397;28;20252;-82
2023/01/24 01:45:40;;;;;;;15.80;9.95;;;1.30;1.00;;;;;;5033585;28;20287;-83
2023/01/24 01:48:18;;;;;;;18.60;11.25;;;1.10;1.00;;;;;;5025528;28;20205;-83
2023/01/24 01:50:49;;;;;;;22.83;13.48;;;1.00;1.00;;;;;;5022844;28;20215;-83
2023/01/24 01:53:18;;;;;;;19.90;12.10;;;0.90;1.00;;;;;;5024261;28;20234;-82
2023/01/24 01:55:50;;;;;;;16.60;11.32;;;0.70;1.00;;;;;;5026557;28;20310;-82
2023/01/24 01:58:18;;;;;;;18.92;11.93;;;1.10;1.00;;;;;;5021583;28;20193;-81
2023/01/24 02:00:49;;;;;;;18.60;11.50;;;1.30;1.90;;;;;;5019143;28;20267;-82
2023/01/24 02:03:40;;;;;;;22.13;12.25;;;0.80;1.00;;;;;;5020075;28;20228;-84
2023/01/24 02:06:16;;;;;;;23.13;12.23;;;1.00;1.00;;;;;;5019126;28;20189;-82
2023/01/24 02:08:44;;;;;;;21.10;12.15;;;1.30;1.00;;;;;;5020017;28;20192;-83
2023/01/24 02:16:40;;;;;;;15.02;10.60;;;1.40;1.00;;;;;;5021399;28;20201;-83
2023/01/24 02:19:16;;;;;;;19.23;10.80;;;1.40;1.00;;;;;;5022682;28;20275;-80
2023/01/24 02:21:45;;;;;;;15.25;10.43;;;0.80;1.00;;;;;;5030250;28;20228;-80
2023/01/24 02:24:21;;;;;;;18.38;11.60;;;1.10;1.00;;;;;;5028711;28;20272;-82
2023/01/24 02:26:49;;;;;;;13.95;9.45;;;1.20;1.00;;;;;;5019901;28;20193;-82
2023/01/24 02:29:17;;;;;;;12.32;9.18;;;0.90;1.00;;;;;;5021913;28;20208;-82
2023/01/24 02:31:55;;;;;;;18.23;10.00;;;0.80;1.00;;;;;;5023233;28;20232;-82
2023/01/24 02:34:22;;;;;;;12.95;9.07;;;0.80;1.00;;;;;;5021488;28;20204;-82
2023/01/24 02:36:53;;;;;;;12.63;8.70;;;0.90;1.00;;;;;;5021864;28;20298;-83
2023/01/24 02:39:24;;;;;;;11.43;8.88;;;0.90;1.00;;;;;;5023105;28;20200;-82
2023/01/24 02:41:54;;;;;;;14.23;9.15;;;1.10;1.00;;;;;;5023533;28;20224;-82
2023/01/24 02:44:29;;;;;;;12.73;9.40;;;1.10;1.00;;;;;;5021981;28;20228;-83
2023/01/24 02:46:56;;;;;;;12.18;8.60;;;1.10;1.00;;;;;;5022511;28;20271;-82
2023/01/24 02:49:23;;;;;;;13.00;9.32;;;0.80;1.00;;;;;;5022231;28;20273;-83
2023/01/24 02:54:34;;;;;;;15.00;9.43;;;0.90;1.00;;;;;;5022158;28;20207;-82
2023/01/24 02:59:47;;;;;;;8.45;7.60;;;;;;;;;;5020773;28;20211;-82
2023/01/24 03:02:14;;;;;;;16.33;8.73;;;;;;;;;;5021441;28;20220;-81
2023/01/24 03:04:41;;;;;;;10.00;7.35;;;0.80;1.00;;;;;;5023235;28;20295;-83
2023/01/24 03:07:08;;;;;;;12.95;8.70;;;1.10;1.00;;;;;;5032939;28;20268;-83
2023/01/24 03:09:35;;;;;;;14.70;9.02;;;1.20;99.90;;;;;;5041380;28;20263;-82
2023/01/24 03:36:46;;;;;;;12.60;9.18;;;0.80;1.00;;;;;;5030456;28;20187;-81
2023/01/24 03:41:57;;;;;;;13.85;10.40;;;1.20;1.00;;;;;;5038050;28;20244;-78
2023/01/24 03:44:25;;;;;;;11.85;9.45;;;1.00;99.90;;;;;;5029222;28;20674;-83
2023/01/24 03:46:52;;;;;;;12.98;9.75;;;;;;;;;;5022273;28;20201;-82
2023/01/24 03:49:19;;;;;;;14.68;9.65;;;0.90;99.90;;;;;;5023305;28;20220;-83
2023/01/24 03:54:30;;;;;;;13.98;8.45;;;0.70;1.00;;;;;;5020356;28;20294;-83
2023/01/24 03:56:57;;;;;;;15.43;9.55;;;-0.20;99.90;;;;;;5020346;28;20208;-82
2023/01/24 03:59:25;;;;;;;11.98;9.25;;;0.40;99.90;;;;;;5020191;28;20292;-82
2023/01/24 04:01:52;;;;;;;15.02;9.05;;;;;;;;;;5019098;28;20275;-82
2023/01/24 04:04:19;;;;;;;9.88;7.78;;;1.00;99.90;;;;;;5021109;28;20576;-81
2023/01/24 04:06:46;;;;;;;9.98;7.13;;;;;;;;;;5021341;28;20208;-82
2023/01/24 04:09:13;;;;;;;10.75;8.25;;;0.40;99.90;;;;;;5021970;28;20581;-82
2023/01/24 04:11:40;;;;;;;12.88;8.30;;;0.70;99.90;;;;;;5022121;28;20220;-82
2023/01/24 04:14:07;;;;;;;10.65;8.13;;;0.40;99.90;;;;;;5019455;28;20204;-82
2023/01/24 04:16:35;;;;;;;16.40;9.07;;;0.90;99.90;;;;;;5019232;28;20291;-81
2023/01/24 04:19:02;;;;;;;14.90;9.65;;;0.70;99.90;;;;;;5019655;28;20201;-81
2023/01/24 04:21:28;;;;;;;12.20;9.27;;;0.90;99.90;;;;;;5019205;28;20224;-81
2023/01/24 04:23:55;;;;;;;14.20;8.38;;;0.90;99.90;;;;;;5022252;28;20228;-82
2023/01/24 04:26:22;;;;;;;14.10;10.18;;;1.00;99.90;;;;;;5023992;28;20267;-82
2023/01/24 04:28:49;;;;;;;11.73;8.70;;;1.00;99.90;;;;;;5030852;28;20216;-81
2023/01/24 04:31:16;;;;;;;14.63;8.43;;;0.90;99.90;;;;;;5029576;28;20235;-80
2023/01/24 04:33:45;;;;;;;11.27;8.93;;;0.90;99.90;;;;;;5032215;28;20339;-80
2023/01/24 04:36:13;;;;;;;13.85;9.25;;;0.50;99.90;;;;;;5033365;28;20663;-80
2023/01/24 04:38:40;;;;;;;15.52;10.25;;;0.90;99.90;;;;;;5033808;28;20193;-80
2023/01/24 04:41:12;;;;;;;12.50;9.15;;;0.50;99.90;;;;;;5024126;28;20299;-82
2023/01/24 04:43:38;;;;;;;16.08;10.23;;;1.00;99.90;;;;;;5020487;28;20220;-82
2023/01/24 04:46:05;;;;;;;15.48;9.10;;;1.00;99.90;;;;;;5023142;28;20208;-82
2023/01/24 04:48:32;;;;;;;12.77;8.23;;;0.70;99.90;;;;;;5020402;28;20296;-82
2023/01/24 04:51:01;;;;;;;15.65;11.23;;;0.50;99.90;;;;;;5018570;28;20252;-82
2023/01/24 04:53:29;;;;;;;11.27;7.75;;;1.10;99.90;;;;;;5019861;28;20271;-81
2023/01/24 04:56:00;;;;;;;14.50;10.13;;;0.50;99.90;;;;;;5019516;28;20208;-82
2023/01/24 04:58:27;;;;;;;11.25;8.77;;;0.80;99.90;;;;;;5019028;28;20276;-81
2023/01/24 05:00:54;;;;;;;10.25;8.40;;;0.90;99.90;;;;;;5018396;28;20240;-82
2023/01/24 05:03:21;;;;;;;13.10;9.35;;;0.70;99.90;;;;;;5019338;28;20653;-82
2023/01/24 05:05:50;;;;;;;12.43;9.13;;;0.90;99.90;;;;;;5019648;28;20240;-82
2023/01/24 05:08:18;;;;;;;15.38;9.00;;;0.80;99.90;;;;;;5019464;28;20208;-82
2023/01/24 05:10:45;;;;;;;8.75;7.85;;;0.70;99.90;;;;;;5018850;28;20201;-82
2023/01/24 05:13:12;;;;;;;12.88;9.43;;;;;;;;;;5024515;28;20292;-80
2023/01/24 05:15:39;;;;;;;13.98;9.70;;;;;;;;;;5029040;28;20316;-80
2023/01/24 05:18:06;;;;;;;11.80;9.75;;;0.70;99.90;;;;;;5029109;28;20268;-82
2023/01/24 05:20:34;;;;;;;11.38;9.15;;;0.80;99.90;;;;;;5029057;28;20222;-81
2023/01/24 05:23:00;;;;;;;14.07;9.55;;;0.50;99.90;;;;;;5019584;28;20666;-81
2023/01/24 05:25:29;;;;;;;14.00;9.43;;;0.80;99.90;;;;;;5019111;28;20231;-81
2023/01/24 05:27:55;;;;;;;14.68;9.25;;;0.50;99.90;;;;;;5018021;28;20213;-82
2023/01/24 05:30:22;;;;;;;15.52;9.73;;;0.90;99.90;;;;;;5019607;28;20235;-82
2023/01/24 05:32:49;;;;;;;12.52;8.68;;;0.60;99.90;;;;;;5039711;22;20224;-82
2023/01/24 05:35:16;;;;;;;13.85;8.82;;;0.90;99.90;;;;;;5019571;28;20186;-82
2023/01/24 05:37:43;;;;;;;16.10;10.35;;;0.50;99.90;;;;;;5017781;28;20225;-83
2023/01/24 05:40:11;;;;;;;16.52;8.93;;;0.90;99.90;;;;;;5012158;28;20232;-84
2023/01/24 05:42:41;;;;;;;14.70;9.88;;;0.70;99.90;;;;;;4997480;28;20221;-85
2023/01/24 05:45:09;;;;;;;13.10;8.90;;;1.00;99.90;;;;;;4998780;28;20191;-85
2023/01/24 05:47:36;;;;;;;13.80;9.38;;;0.90;99.90;;;;;;4998352;28;20205;-85
2023/01/24 05:50:03;;;;;;;14.63;8.90;;;0.20;99.90;;;;;;5018907;28;20240;-83
2023/01/24 05:52:30;;;;;;;18.10;9.77;;;0.50;99.90;;;;;;5019253;28;20253;-83
2023/01/24 05:54:57;;;;;;;21.35;10.75;;;;;;;;;;5010873;28;20224;-85
2023/01/24 05:57:24;;;;;;;16.20;10.15;;;0.80;99.90;;;;;;5009864;28;20288;-84
2023/01/24 05:59:52;;;;;;;17.65;9.57;;;0.40;99.90;;;;;;5012531;28;20272;-84
2023/01/24 06:02:19;;;;;;;16.98;9.35;;;0.70;99.90;;;;;;5009188;28;20260;-84
2023/01/24 06:04:46;;;;;;;18.13;10.88;;;0.80;99.90;;;;;;5007714;28;20205;-84
2023/01/24 06:07:12;;;;;;;15.80;9.25;;;0.40;99.90;;;;;;5003676;28;20205;-84
2023/01/24 06:09:39;;;;;;;15.20;9.95;;;;;;;;;;5001845;28;20205;-84
2023/01/24 06:12:06;;;;;;;38.53;16.15;;;1.40;1.00;;;;;;5003709;28;20225;-84
2023/01/24 06:14:33;;;;;;;14.75;11.80;;;1.20;1.00;;;;;;5014961;28;20260;-84
2023/01/24 06:17:01;;;;;;;20.23;10.90;;;1.00;99.90;;;;;;5014380;28;20272;-84
2023/01/24 06:19:29;;;;;;;16.38;10.85;;;0.70;99.90;;;;;;5009185;28;20272;-84
2023/01/24 06:22:02;;;;;;;15.80;10.05;;;1.00;99.90;;;;;;5005145;28;20288;-82
2023/01/24 06:24:30;;;;;;;15.32;10.00;;;0.80;99.90;;;;;;5006686;28;20200;-83
2023/01/24 06:26:58;;;;;;;16.42;10.20;;;1.00;99.90;;;;;;5001941;28;20284;-83
2023/01/24 06:29:25;;;;;;;21.15;13.05;;;0.60;99.90;;;;;;5000927;28;20202;-83
2023/01/24 06:32:05;;;;;;;20.55;12.05;;;0.90;1.00;;;;;;5002179;28;20260;-83
2023/01/24 06:34:47;;;;;;;15.45;9.25;;;1.00;99.90;;;;;;5009503;28;20217;-83
2023/01/24 06:37:20;;;;;;;17.13;10.88;;;0.80;99.90;;;;;;5016147;28;20177;-83
2023/01/24 06:39:53;;;;;;;25.65;10.82;;;1.00;99.90;;;;;;5012284;28;20209;-83
2023/01/24 06:42:20;;;;;;;19.50;10.85;;;0.80;99.90;;;;;;5004270;28;20243;-82
2023/01/24 06:44:47;;;;;;;17.52;11.05;;;1.10;1.00;;;;;;5003398;28;20272;-84
2023/01/24 06:47:16;;;;;;;18.48;10.95;;;0.90;99.90;;;;;;5004123;28;20207;-84
2023/01/24 06:49:43;;;;;;;20.77;11.70;;;1.10;1.00;;;;;;5000706;28;20214;-84
2023/01/24 06:52:12;;;;;;;23.70;12.60;;;0.60;99.90;;;;;;4998637;28;20312;-84
2023/01/24 06:54:39;;;;;;;20.52;10.30;;;0.50;99.90;;;;;;4999467;28;20233;-84
2023/01/24 06:57:05;;;;;;;26.88;13.45;;;1.20;1.00;;;;;;5000737;28;20268;-83
2023/01/24 06:59:32;;;;;;;19.42;10.98;;;1.20;99.90;;;;;;5000970;28;20205;-84
2023/01/24 07:01:59;;;;;;;18.58;10.55;;;;;;;;;;5000158;28;20221;-83
2023/01/24 07:04:27;;;;;;;23.05;11.75;;;1.10;99.90;;;;;;5005540;28;20213;-84
2023/01/24 07:06:54;;;;;;;25.48;12.40;;;0.60;99.90;;;;;;5002708;28;20260;-84
2023/01/24 07:09:21;;;;;;;27.42;12.77;;;;;;;;;;4997411;28;20211;-84
2023/01/24 07:11:52;;;;;;;22.35;13.00;;;0.70;1.00;;;;;;4996267;28;20204;-84
2023/01/24 07:14:19;;;;;;;23.17;13.13;;;0.80;1.00;;;;;;4999798;28;20197;-84
2023/01/24 07:16:46;;;;;;;24.70;13.73;;;-0.50;99.90;;;;;;5002993;28;20291;-85
2023/01/24 07:19:16;;;;;;;32.33;12.73;;;0.80;99.90;;;;;;5004725;28;20273;-84
2023/01/24 07:21:45;;;;;;;24.30;13.30;;;0.80;99.90;;;;;;5001405;28;20213;-84
2023/01/24 07:24:14;;;;;;;24.17;12.90;;;0.90;1.00;;;;;;5004331;28;20205;-85
2023/01/24 07:26:42;;;;;;;29.73;15.35;;;1.00;1.00;;;;;;5006379;28;20231;-85
2023/01/24 07:29:09;;;;;;;26.92;13.60;;;0.80;1.00;;;;;;5012002;28;20196;-85
2023/01/24 07:31:36;;;;;;;25.95;14.52;;;0.80;99.90;;;;;;5021442;28;20178;-84
2023/01/24 07:34:03;;;;;;;32.63;15.02;;;1.10;99.90;;;;;;5020942;28;20189;-83
2023/01/24 07:36:30;;;;;;;31.27;15.25;;;0.50;99.90;;;;;;5020494;28;20213;-84
2023/01/24 07:38:58;;;;;;;35.47;13.57;;;0.80;99.90;;;;;;5010390;28;20273;-84
2023/01/24 07:41:25;;;;;;;31.73;15.57;;;0.70;99.90;;;;;;5006652;28;20221;-84
2023/01/24 07:43:52;;;;;;;25.52;16.85;;;1.10;99.90;;;;;;5007411;28;20226;-84
2023/01/24 07:46:19;;;;;;;32.55;15.52;;;1.00;1.00;;;;;;5007256;28;20823;-85
2023/01/24 07:48:47;;;;;;;33.05;15.63;;;;;;;;;;5014229;28;20208;-84
2023/01/24 07:51:13;;;;;;;33.00;18.23;;;0.70;99.90;;;;;;5016583;28;20265;-84
2023/01/24 07:53:40;;;;;;;32.17;18.23;;;1.00;99.90;;;;;;5017043;28;20231;-84
2023/01/24 07:56:09;;;;;;;36.10;14.52;;;1.20;99.90;;;;;;5006636;28;20280;-84
2023/01/24 07:58:36;;;;;;;43.85;17.45;;;;;;;;;;5006779;28;20228;-85
2023/01/24 08:01:05;;;;;;;38.72;15.00;;;0.80;99.90;;;;;;5007419;28;20251;-84
2023/01/24 08:03:37;;;;;;;34.13;15.48;;;1.00;99.90;;;;;;5008397;28;20205;-85
2023/01/24 08:06:05;;;;;;;39.25;15.75;;;1.30;99.90;;;;;;5011176;28;20217;-86
2023/01/24 08:08:32;;;;;;;42.78;15.25;;;;;;;;;;5015200;28;20205;-85
2023/01/24 08:10:59;;;;;;;40.22;16.75;;;;;;;;;;5014613;28;20278;-84
2023/01/24 08:13:27;;;;;;;42.83;17.38;;;0.90;99.90;;;;;;5008623;28;20228;-84
2023/01/24 08:15:54;;;;;;;38.72;18.60;;;;;;;;;;5006979;28;20209;-85
2023/01/24 08:18:21;;;;;;;38.08;17.60;;;0.80;99.90;;;;;;5007180;28;20193;-85
2023/01/24 08:20:49;;;;;;;45.47;19.75;;;1.10;99.90;;;;;;5005972;28;20209;-84
2023/01/24 08:23:16;;;;;;;44.53;19.20;;;1.30;99.90;;;;;;5005916;28;20225;-84
2023/01/24 08:25:42;;;;;;;44.45;18.70;;;0.60;99.90;;;;;;5005465;28;20229;-84
2023/01/24 08:28:10;;;;;;;44.85;19.88;;;;;;;;;;5008722;28;20273;-84
2023/01/24 08:30:38;;;;;;;45.90;17.27;;;1.10;99.90;;;;;;5007458;28;20204;-84
2023/01/24 08:33:06;;;;;;;38.30;19.35;;;1.00;99.90;;;;;;5008370;28;20235;-84
2023/01/24 08:35:34;;;;;;;60.15;22.88;;;1.30;1.00;;;;;;5006778;28;20212;-84
2023/01/24 08:38:01;;;;;;;41.50;16.45;;;;;;;;;;5005316;28;20209;-84
2023/01/24 08:40:28;;;;;;;48.63;21.75;;;1.70;99.90;;;;;;5005823;28;20209;-84
2023/01/24 08:42:54;;;;;;;46.25;19.83;;;1.70;99.90;;;;;;4999228;28;20316;-87
2023/01/24 08:45:21;;;;;;;44.60;16.70;;;1.10;99.90;;;;;;5003590;28;20209;-84
2023/01/24 08:47:53;;;;;;;35.45;17.33;;;0.80;99.90;;;;;;5011292;28;20190;-83
2023/01/24 08:50:20;;;;;;;42.53;19.00;;;1.30;99.90;;;;;;5001632;28;20186;-84
2023/01/24 08:52:47;;;;;;;54.90;17.25;;;1.40;99.90;;;;;;5002650;28;20225;-84
2023/01/24 08:55:15;;;;;;;46.65;19.55;;;0.60;99.90;;;;;;5004275;28;20209;-83
2023/01/24 08:57:42;;;;;;;48.40;19.30;;;1.60;99.90;;;;;;5004625;28;20339;-83
2023/01/24 09:00:10;;;;;;;39.58;18.58;;;1.30;99.90;;;;;;5006432;28;20201;-83
2023/01/24 09:02:38;;;;;;;48.90;20.67;;;1.30;99.90;;;;;;5005756;28;20292;-84
2023/01/24 09:05:08;;;;;;;43.42;19.88;;;1.20;99.90;;;;;;5012336;28;20193;-84
2023/01/24 09:07:36;;;;;;;52.13;19.63;;;1.50;99.90;;;;;;5016801;28;20287;-84
2023/01/24 09:10:03;;;;;;;46.33;19.33;;;1.50;99.90;;;;;;5014889;28;20256;-84
2023/01/24 09:12:31;;;;;;;39.88;18.95;;;;;;;;;;5019486;28;20274;-82
2023/01/24 09:14:58;;;;;;;40.08;18.48;;;1.10;99.90;;;;;;5018097;28;20198;-83
2023/01/24 09:17:25;;;;;;;40.88;18.60;;;1.10;99.90;;;;;;5018127;28;20256;-83
2023/01/24 09:19:52;;;;;;;46.33;22.23;;;1.30;99.90;;;;;;5018311;28;20206;-83
2023/01/24 09:22:20;;;;;;;54.53;23.35;;;1.30;99.90;;;;;;5012660;28;20316;-83
2023/01/24 09:24:47;;;;;;;51.83;19.90;;;;;;;;;;5016635;28;20236;-82
2023/01/24 09:27:14;;;;;;;41.10;18.05;;;1.10;99.90;;;;;;5016593;28;20193;-84
2023/01/24 09:29:41;;;;;;;49.50;21.52;;;1.20;99.90;;;;;;5009432;28;20284;-83
2023/01/24 09:32:07;;;;;;;54.42;20.25;;;1.80;99.90;;;;;;5007486;28;20229;-83
2023/01/24 09:34:34;;;;;;;45.95;18.85;;;1.30;99.90;;;;;;5008978;28;20395;-83
2023/01/24 09:37:04;;;;;;;46.88;21.27;;;1.40;99.90;;;;;;5008595;28;20237;-83
2023/01/24 09:39:32;;;;;;;44.88;20.25;;;1.20;64.50;;;;;;5010877;28;20211;-83
2023/01/24 09:42:02;;;;;;;42.83;20.55;;;1.60;46.10;;;;;;5010698;28;20239;-83
2023/01/24 09:44:39;;;;;;;42.03;20.52;;;1.70;99.90;;;;;;5010784;28;20276;-83
2023/01/24 09:47:18;;;;;;;47.72;19.00;;;2.00;99.90;;;;;;5009279;28;20214;-84
2023/01/24 09:49:49;;;;;;;56.45;21.48;;;1.60;99.90;;;;;;5010589;28;20193;-83
2023/01/24 09:52:26;;;;;;;52.05;21.30;;;1.60;31.80;;;;;;5008876;28;20639;-82
2023/01/24 09:55:00;;;;;;;51.58;20.40;;;1.60;78.40;;;;;;5008987;28;20276;-83
2023/01/24 09:57:30;;;;;;;53.70;21.50;;;1.50;1.00;;;;;;5008795;28;20228;-83
2023/01/24 10:00:04;;;;;;;49.60;20.55;;;1.60;1.00;;;;;;5006036;28;20205;-84
2023/01/24 10:02:30;;;;;;;48.88;19.55;;;1.90;1.00;;;;;;5005901;28;20225;-83
2023/01/24 10:04:58;;;;;;;55.67;22.55;;;;;;;;;;5004640;28;20272;-83
2023/01/24 10:07:59;;;;;;;49.58;20.40;;;1.80;99.90;;;;;;5003051;28;20232;-83
2023/01/24 10:10:43;;;;;;;48.10;20.60;;;1.60;1.00;;;;;;5002404;28;20280;-82
2023/01/24 10:13:37;;;;;;;42.60;19.27;;;1.80;1.00;;;;;;5003038;28;20225;-83
2023/01/24 10:16:17;;;;;;;61.92;22.05;;;1.80;1.00;;;;;;5017868;28;20196;-81
2023/01/24 10:18:57;;;;;;;46.28;19.80;;;1.50;1.00;;;;;;5016684;28;20281;-82
2023/01/24 10:21:50;;;;;;;43.38;19.77;;;1.60;1.00;;;;;;5005369;28;20189;-83
2023/01/24 10:24:21;;;;;;;50.13;19.92;;;2.20;99.90;;;;;;5001947;28;20190;-82
2023/01/24 10:26:51;;;;;;;47.15;20.23;;;2.60;99.90;;;;;;5012452;28;20186;-82
2023/01/24 10:29:20;;;;;;;41.13;20.00;;;2.40;1.00;;;;;;5015293;28;20317;-81
2023/01/24 10:31:56;;;;;;;51.58;19.58;;;1.70;1.00;;;;;;5013476;28;20228;-82
2023/01/24 10:34:29;;;;;;;42.55;20.73;;;1.50;1.00;;;;;;5012996;28;20654;-82
2023/01/24 10:36:59;;;;;;;54.85;19.75;;;1.70;99.90;;;;;;5010492;28;20201;-82
2023/01/24 10:39:27;;;;;;;42.67;20.52;;;1.70;99.90;;;;;;5004287;28;20277;-82
2023/01/24 10:41:55;;;;;;;39.10;20.60;;;1.80;1.00;;;;;;5004686;28;20771;-82
2023/01/24 10:44:30;;;;;;;45.00;19.98;;;1.70;99.90;;;;;;5003485;28;20264;-84
2023/01/24 10:47:16;;;;;;;43.10;22.38;;;2.50;99.90;;;;;;5000833;28;20195;-83
2023/01/24 10:49:51;;;;;;;47.45;20.35;;;1.80;1.00;;;;;;5003514;28;20195;-83
2023/01/24 10:52:19;;;;;;;43.65;19.15;;;2.20;1.00;;;;;;5006710;28;20225;-82
2023/01/24 10:54:50;;;;;;;47.22;19.30;;;1.60;53.00;;;;;;5005532;28;20228;-82
2023/01/24 10:57:39;;;;;;;47.13;19.90;;;1.90;1.00;;;;;;5010989;28;20181;-82
2023/01/24 11:00:19;;;;;;;45.05;19.20;;;1.90;1.00;;;;;;5019199;28;20233;-82
2023/01/24 11:02:49;;;;;;;46.92;19.20;;;2.20;99.90;;;;;;5009683;28;20229;-82
2023/01/24 11:05:16;;;;;;;49.30;21.13;;;;;;;;;;5003781;28;20255;-82
2023/01/24 11:07:47;;;;;;;47.17;19.60;;;2.30;1.00;;;;;;5002644;28;20209;-82
2023/01/24 11:10:22;;;;;;;53.08;21.27;;;2.40;13.70;;;;;;5003217;28;20213;-83
2023/01/24 11:12:53;;;;;;;38.17;19.85;;;1.90;88.40;;;;;;5002611;28;20235;-83
2023/01/24 11:15:27;;;;;;;47.38;20.35;;;2.20;32.50;;;;;;5003687;28;20194;-84
2023/01/24 11:17:57;;;;;;;40.25;19.23;;;2.30;99.90;;;;;;5002510;28;20197;-84
2023/01/24 11:20:30;;;;;;;44.58;19.25;;;2.50;99.90;;;;;;5003162;28;20202;-83
2023/01/24 11:23:16;;;;;;;40.92;17.35;;;2.20;1.00;;;;;;5002588;28;20229;-83
2023/01/24 11:25:54;;;;;;;35.65;18.00;;;2.60;99.40;;;;;;5002794;28;20682;-86
2023/01/24 11:28:26;;;;;;;41.33;20.48;;;2.40;1.00;;;;;;5002084;28;20276;-83
2023/01/24 11:30:55;;;;;;;36.13;19.02;;;2.20;99.90;;;;;;5002829;28;20679;-84
2023/01/24 11:33:46;;;;;;;45.00;22.45;;;1.80;90.20;;;;;;5033456;23;20213;-81
2023/01/24 11:36:24;;;;;;;39.20;18.63;;;1.80;87.80;;;;;;5020069;28;20253;-80
2023/01/24 11:38:55;;;;;;;39.65;18.55;;;1.90;1.00;;;;;;5019565;28;20185;-81
2023/01/24 11:41:30;;;;;;;43.28;18.35;;;2.10;16.80;;;;;;5019647;28;20228;-80
2023/01/24 11:44:34;;;;;;;50.30;19.23;;;1.70;99.90;;;;;;5018532;28;20310;-81
2023/01/24 11:47:09;;;;;;;36.03;19.30;;;1.70;99.90;;;;;;5018725;28;20207;-81
2023/01/24 11:50:08;;;;;;;39.53;17.55;;;2.00;1.00;;;;;;5015653;28;20204;-82
2023/01/24 11:52:53;;;;;;;46.08;24.05;;;2.10;1.00;;;;;;5004736;28;20280;-84
2023/01/24 11:55:39;;;;;;;32.33;18.95;;;2.40;99.90;;;;;;5008538;28;20257;-84
2023/01/24 11:58:22;;;;;;;40.03;17.40;;;1.70;99.90;;;;;;5004614;28;20185;-83
2023/01/24 12:00:56;;;;;;;35.00;18.60;;;1.90;1.00;;;;;;5004336;28;20185;-83
2023/01/24 12:03:47;;;;;;;37.05;16.65;;;1.60;84.70;;;;;;5003563;28;20225;-83
2023/01/24 12:06:26;;;;;;;38.05;16.70;;;2.00;18.80;;;;;;5015275;28;20189;-81
2023/01/24 12:09:06;;;;;;;39.33;18.10;;;2.40;99.90;;;;;;5017701;28;20200;-81
2023/01/24 12:11:39;;;;;;;39.83;20.02;;;2.30;99.90;;;;;;5012338;28;20193;-82
2023/01/24 12:14:37;;;;;;;38.53;19.35;;;1.80;99.90;;;;;;5008679;28;20654;-81
2023/01/24 12:17:12;;;;;;;34.35;17.27;;;2.50;79.60;;;;;;4969506;28;20641;-81
2023/01/24 12:19:54;;;;;;;37.28;19.27;;;1.50;28.70;;;;;;5000908;28;20193;-82
2023/01/24 12:22:24;;;;;;;35.47;17.88;;;2.50;11.60;;;;;;5002344;28;20395;-82
2023/01/24 12:24:56;;;;;;;30.65;18.35;;;2.40;46.20;;;;;;5001359;28;20220;-83
2023/01/24 12:27:26;;;;;;;33.75;17.88;;;2.30;99.90;;;;;;5002772;28;20272;-84
2023/01/24 12:30:00;;;;;;;33.50;18.40;;;2.50;48.00;;;;;;5002121;28;20616;-83
2023/01/24 12:32:36;;;;;;;29.55;16.85;;;2.40;77.90;;;;;;5002768;28;20237;-83
2023/01/24 12:35:11;;;;;;;35.70;18.00;;;2.50;99.90;;;;;;5002470;28;20292;-84
2023/01/24 12:37:46;;;;;;;31.23;16.55;;;3.20;1.00;;;;;;5003004;28;20196;-81
2023/01/24 12:40:20;;;;;;;34.17;18.02;;;2.00;99.90;;;;;;5005148;28;20231;-83
2023/01/24 12:42:53;;;;;;;33.78;17.25;;;2.40;99.90;;;;;;5004603;28;20272;-82
2023/01/24 12:45:25;;;;;;;33.95;16.38;;;2.00;99.90;;;;;;5019635;28;20213;-82
2023/01/24 12:48:00;;;;;;;33.97;17.23;;;2.20;99.90;;;;;;5017602;28;20245;-84
2023/01/24 12:50:35;;;;;;;40.13;20.33;;;2.10;99.90;;;;;;5005782;28;20193;-83
2023/01/24 12:53:11;;;;;;;38.00;19.38;;;2.10;1.00;;;;;;5003480;28;20256;-83
2023/01/24 12:55:45;;;;;;;37.63;19.45;;;2.60;99.90;;;;;;5007983;28;20252;-83
2023/01/24 12:58:20;;;;;;;39.75;18.85;;;2.40;1.00;;;;;;5015247;28;20194;-83
2023/01/24 13:00:58;;;;;;;38.40;21.13;;;2.10;99.90;;;;;;5012309;28;20667;-83
2023/01/24 13:03:36;;;;;;;32.63;17.67;;;2.20;1.00;;;;;;5004464;28;20231;-83
2023/01/24 13:06:08;;;;;;;39.88;18.35;;;1.90;5.90;;;;;;5002446;28;20205;-84
2023/01/24 13:08:48;;;;;;;34.08;18.02;;;2.10;99.90;;;;;;5002404;28;20276;-82
2023/01/24 13:11:20;;;;;;;36.95;19.15;;;2.20;99.90;;;;;;5001419;28;20227;-85
2023/01/24 13:13:58;;;;;;;35.58;18.95;;;2.10;53.20;;;;;;5003296;28;20288;-83
2023/01/24 13:16:45;;;;;;;34.15;16.38;;;2.70;99.90;;;;;;5002204;28;20209;-83
2023/01/24 13:19:26;;;;;;;33.95;18.40;;;2.60;99.90;;;;;;5000964;28;20186;-83
2023/01/24 13:22:08;;;;;;;31.95;16.90;;;2.40;1.00;;;;;;5000465;28;20279;-83
2023/01/24 13:24:52;;;;;;;34.35;17.35;;;2.20;86.40;;;;;;4999312;28;20526;-83
2023/01/24 13:27:38;;;;;;;33.30;16.55;;;2.40;1.00;;;;;;4999695;28;20189;-82
2023/01/24 13:30:19;;;;;;;32.88;16.38;;;2.50;99.90;;;;;;5000948;28;20244;-85
2023/01/24 13:32:47;;;;;;;41.03;17.75;;;2.50;99.90;;;;;;5001176;28;20317;-84
2023/01/24 13:35:18;;;;;;;29.95;16.63;;;2.20;1.00;;;;;;5000815;28;20217;-83
2023/01/24 13:37:51;;;;;;;38.05;17.70;;;2.50;99.90;;;;;;5001899;28;20220;-84
2023/01/24 13:40:29;;;;;;;42.47;24.60;;;2.20;31.00;;;;;;4999410;28;20185;-84
2023/01/24 13:43:00;;;;;;;28.25;15.88;;;;;;;;;;5000574;28;20601;-83
2023/01/24 13:45:48;;;;;;;33.40;16.85;;;2.20;1.00;;;;;;5000676;28;20229;-84
2023/01/24 13:48:44;;;;;;;30.85;16.52;;;2.30;99.90;;;;;;4999559;28;20228;-85
2023/01/24 13:51:33;;;;;;;32.50;16.30;;;2.10;99.90;;;;;;5001991;28;20212;-83